• Join FlightAware (Why Join?)
  • Login
  • US Flag 
02:04PM EST


 

Airport Tracker/Info


-or-


 

Live Flight TrackerFlight Track Log ✈ ASQ5389 ✈ 10-Apr-2013 ✈ KRDU - KMEM

Flight Track Log - Related Links

Times and Time Zones

All times are in EDT time to prevent confusion due to time zone crossing. See the ASQ5389 flight status page for this flight to view local times or setup timezone preferences in your user account.

Time Position Orientation Groundspeed Altitude Reporting Facility
EDT Latitude Longitude Course Direction KTS MPH feet Rate Location/Type
12:05PM 35.8169 -78.8733 224° Southwest 217 250 4,100  Level Washington Center
12:06PM 35.8003 -78.9494 255° West 271 312 6,200 1,980 Climbing Washington Center
12:07PM 35.8100 -79.0394 278° West 280 322 8,400 1,800 Climbing Washington Center
12:09PM 35.8289 -79.2442 277° West 289 333 11,800 1,800 Climbing Atlanta Center
12:10PM 35.8314 -79.3567 272° West 311 358 13,800 1,920 Climbing Atlanta Center
12:11PM 35.8231 -79.4672 265° West 325 374 15,700 1,800 Climbing Atlanta Center
12:12PM 35.8103 -79.5781 262° West 331 381 17,400 1,500 Climbing Atlanta Center
12:13PM 35.7892 -79.6867 257° West 331 381 18,800 1,440 Climbing Atlanta Center
12:14PM 35.7739 -79.7875 259° West 341 392 20,300 1,440 Climbing Atlanta Center
12:15PM 35.7528 -79.8986 257° West 341 392 21,700 1,200 Climbing Atlanta Center
12:16PM 35.7317 -80.0147 257° West 341 392 22,800 1,020 Climbing Atlanta Center
12:17PM 35.7122 -80.1283 258° West 336 387 23,800 1,140 Climbing Atlanta Center
12:18PM 35.6892 -80.2572 258° West 347 399 25,100 1,200 Climbing Atlanta Center
12:19PM 35.6681 -80.3808 258° West 357 411 26,200 1,080 Climbing Atlanta Center
12:20PM 35.6442 -80.4969 256° West 357 411 27,300 1,020 Climbing Atlanta Center
12:21PM 35.5992 -80.6036 243° Southwest 352 405 28,300 720 Climbing Atlanta Center
12:22PM 35.5542 -80.7100 243° Southwest 357 411 28,800 480 Climbing Atlanta Center
12:23PM 35.5072 -80.8217 243° Southwest 365 420 29,300 480 Climbing Atlanta Center
12:24PM 35.4558 -80.9383 242° Southwest 380 437 29,800 420 Climbing Atlanta Center
12:25PM 35.4125 -81.0444 243° Southwest 386 444 30,200 420 Climbing Atlanta Center
12:26PM 35.3592 -81.1661 242° Southwest 402 463 30,700 480 Climbing Atlanta Center
12:27PM 35.3078 -81.2850 242° Southwest 402 463 31,200 540 Climbing Atlanta Center
12:28PM 35.2858 -81.4308 260° West 394 453 31,800 360 Climbing Atlanta Center
12:29PM 35.2781 -81.5658 266° West 394 453 32,000 60 Climbing Atlanta Center
12:30PM 35.2683 -81.7011 265° West 405 466 32,000  Level Atlanta Center
12:31PM 35.2583 -81.8386 265° West 410 472 32,000  Level Atlanta Center
12:32PM 35.2483 -81.9814 265° West 415 478 32,000  Level Atlanta Center
12:33PM 35.2381 -82.1189 265° West 415 478 32,000  Level Atlanta Center
12:34PM 35.2256 -82.2592 264° West 415 478 32,000  Level Atlanta Center
12:35PM 35.2167 -82.3839 265° West 420 483 32,000  Level Atlanta Center
12:36PM 35.2039 -82.5239 264° West 420 483 32,000  Level Atlanta Center
12:37PM 35.1931 -82.6611 265° West 420 483 32,000  Level Atlanta Center
12:38PM 35.1819 -82.7986 264° West 414 476 32,000  Level Atlanta Center
12:39PM 35.1711 -82.9539 265° West 414 476 32,000  Level Atlanta Center
12:40PM 35.1556 -83.0936 262° West 414 476 32,000  Level Atlanta Center
12:41PM 35.1461 -83.2336 265° West 414 476 32,000  Level Atlanta Center
12:42PM 35.1322 -83.3708 263° West 414 476 32,000  Level Atlanta Center
12:43PM 35.1203 -83.5031 264° West 408 470 32,000  Level Atlanta Center
12:44PM 35.1064 -83.6428 263° West 408 470 32,000  Level Atlanta Center
12:45PM 35.0942 -83.7825 264° West 408 470 32,000  Level Atlanta Center
12:46PM 35.0819 -83.9169 264° West 408 470 32,000  Level Atlanta Center
12:47PM 35.0694 -84.0514 264° West 408 470 32,000  Level Atlanta Center
12:48PM 35.0567 -84.1886 264° West 408 470 32,000  Level Atlanta Center
12:49PM 35.0419 -84.3253 263° West 408 470 32,000  Level Atlanta Center
12:50PM 35.0292 -84.4622 264° West 408 470 32,000  Level Atlanta Center
12:51PM 35.0161 -84.5967 263° West 408 470 32,000  Level Atlanta Center
12:52PM 35.0028 -84.7311 263° West 408 470 32,000  Level Atlanta Center
12:53PM 34.9894 -84.8678 263° West 408 470 32,000  Level Atlanta Center
12:54PM 34.9758 -85.0019 263° West 408 470 32,000  Level Atlanta Center
12:55PM 34.9603 -85.1386 262° West 408 470 32,000  Level Atlanta Center
12:56PM 34.9464 -85.2728 263° West 408 470 32,000  Level Atlanta Center
12:57PM 34.9347 -85.3917 263° West 408 470 32,000  Level Atlanta Center
12:58PM 34.9206 -85.5258 263° West 403 464 32,000  Level Atlanta Center
12:59PM 34.9064 -85.6597 263° West 408 470 32,000  Level Atlanta Center
01:00PM 34.8922 -85.7911 263° West 408 470 32,000  Level Atlanta Center
01:01PM 34.8817 -85.9250 265° West 403 464 32,000  Level Atlanta Center
01:02PM 34.8672 -86.0589 263° West 408 470 32,000  Level Atlanta Center
01:03PM 34.8503 -86.1928 261° West 408 470 32,000  Level Atlanta Center
01:04PM 34.8372 -86.3289 263° West 408 470 32,000  Level Atlanta Center
01:05PM 34.8222 -86.4628 262° West 408 470 32,000  Level Atlanta Center
01:06PM 34.8069 -86.5964 262° West 408 470 32,000  Level Atlanta Center
01:06PM 34.7983 -86.6775 263° West 407 468 32,000  Level Memphis Center
01:07PM 34.7814 -86.8097 261° West 407 468 32,000  Level Memphis Center
01:08PM 34.7639 -86.9367 261° West 407 468 32,000  Level Memphis Center
01:09PM 34.7489 -87.0714 262° West 402 463 32,000  Level Memphis Center
01:10PM 34.7353 -87.1881 262° West 396 456 32,000 -480 Level Memphis Center
01:11PM 34.7219 -87.3225 263° West 396 456 31,100 -960 Descending Memphis Center
01:12PM 34.7128 -87.4644 266° West 416 479 30,100 -600 Descending Memphis Center
01:13PM 34.7203 -87.6158 273° West 440 506 30,000 -60 Descending Memphis Center
01:14PM 34.7172 -87.7597 269° West 440 506 30,000  Level Memphis Center
01:15PM 34.7181 -87.9039 270° West 435 501 30,000  Level Memphis Center
01:16PM 34.7208 -88.0478 271° West 435 501 30,000 -240 Level Memphis Center
01:17PM 34.7214 -88.1917 270° West 435 501 29,600 -720 Descending Memphis Center
01:18PM 34.7197 -88.3383 269° West 435 501 28,600 -1,080 Descending Memphis Center
01:19PM 34.7197 -88.4822 270° West 435 501 27,500 -1,500 Descending Memphis Center
01:20PM 34.7181 -88.6567 269° West 435 501 25,300 -2,160 Descending Memphis Center
01:21PM 34.7200 -88.8033 271° West 440 506 22,900 -2,340 Descending Memphis Center
01:22PM 34.7175 -88.9397 269° West 433 498 20,700 -2,220 Descending Memphis Center
01:23PM 34.7189 -89.0736 271° West 413 475 18,500 -2,100 Descending Memphis Center
01:24PM 34.7183 -89.2075 270° West 401 461 16,500 -2,040 Descending Memphis Center
01:25PM 34.7319 -89.3311 278° West 388 447 14,500 -1,260 Descending Memphis Center
01:26PM 34.7600 -89.4597 285° West 388 447 14,000 -600 Descending Memphis Center
01:27PM 34.8086 -89.5731 298° West 382 440 13,400 -540 Descending Memphis Center
01:28PM 34.8594 -89.6714 302° West 371 427 13,000 -780 Descending Memphis Center
01:29PM 34.9017 -89.7569 301° West 330 380 11,900 -1,320 Descending Memphis Center
01:30PM 34.9394 -89.8328 301° West 290 334 10,400 -1,500 Descending Memphis Center
01:31PM 34.9961 -89.8806 325° Northwest 263 303 9,000 -1,500 Descending Memphis Center
01:32PM 35.1000 -89.8833 359° North 274 315 7,100 -1,740 Descending KMEM
01:33PM 35.1667 -89.8833 360° North 261 300 5,200 -1,560 Descending KMEM
01:34PM 35.2333 -89.8667 12° North 249 287 4,000 -900 Descending KMEM
01:35PM 35.2858 -89.8661 360° North 251 289 3,600 -600 Descending Memphis Center
01:36PM 35.3339 -89.8989 331° Northwest 224 258 3,000 -300 Descending Memphis Center
01:37PM 35.3364 -89.9675 273° West 177 204 3,000 -120 Level Memphis Center
01:38PM 35.2500 -89.9833 189° South 172 198 2,800 -420 Descending KMEM
01:39PM 35.2000 -89.9833 180° South 167 192 2,200 -420 Descending KMEM
01:40PM 35.1500 -89.9833 180° South 172 198 2,000 -480 Descending KMEM
01:41PM 35.1000 -89.9667 165° South 161 185 1,300 -720 Descending KMEM
01:42PM 35.0667 -89.9667 180° South 124 143 600 -720 Descending KMEM
01:44PM 35.0424 -89.9767 196° South  Level Estimated
01:51PM 35.0424 -89.9767 196° South  Level Estimated
01:52PM 35.0424 -89.9767 196° South  Level Estimated
01:53PM 35.0424 -89.9767 196° South  Level Estimated
01:54PM 35.0424 -89.9767 196° South  Level Estimated